sensor_id;sensor_type;location;lat;lon;timestamp;temperature;humidity
2062;DHT22;11070;51.336;12.340;2023-05-13T00:01:41;12.90;99.90
2062;DHT22;11070;51.336;12.340;2023-05-13T00:04:08;12.80;99.90
2062;DHT22;11070;51.336;12.340;2023-05-13T00:06:34;12.70;99.90
2062;DHT22;11070;51.336;12.340;2023-05-13T00:09:00;12.60;99.90
2062;DHT22;11070;51.336;12.340;2023-05-13T00:11:26;12.60;99.90
2062;DHT22;11070;51.336;12.340;2023-05-13T00:13:52;12.60;99.90
2062;DHT22;11070;51.336;12.340;2023-05-13T00:16:18;12.60;99.90
2062;DHT22;11070;51.336;12.340;2023-05-13T00:18:43;12.60;99.90
2062;DHT22;11070;51.336;12.340;2023-05-13T00:21:09;12.60;99.90
2062;DHT22;11070;51.336;12.340;2023-05-13T00:23:35;12.60;99.90
2062;DHT22;11070;51.336;12.340;2023-05-13T00:26:01;12.60;99.90
2062;DHT22;11070;51.336;12.340;2023-05-13T00:28:27;12.50;99.90
2062;DHT22;11070;51.336;12.340;2023-05-13T00:30:52;12.50;99.90
2062;DHT22;11070;51.336;12.340;2023-05-13T00:33:18;12.40;99.90
2062;DHT22;11070;51.336;12.340;2023-05-13T00:35:43;12.40;99.90
2062;DHT22;11070;51.336;12.340;2023-05-13T00:38:09;12.40;99.90
2062;DHT22;11070;51.336;12.340;2023-05-13T00:40:37;12.40;99.90
2062;DHT22;11070;51.336;12.340;2023-05-13T00:43:04;12.30;99.90
2062;DHT22;11070;51.336;12.340;2023-05-13T00:45:31;12.20;99.90
2062;DHT22;11070;51.336;12.340;2023-05-13T00:47:57;12.20;99.90
2062;DHT22;11070;51.336;12.340;2023-05-13T00:50:23;12.20;99.90
2062;DHT22;11070;51.336;12.340;2023-05-13T00:52:49;12.20;99.90
2062;DHT22;11070;51.336;12.340;2023-05-13T00:55:16;12.20;99.90
2062;DHT22;11070;51.336;12.340;2023-05-13T00:57:42;12.10;99.90
2062;DHT22;11070;51.336;12.340;2023-05-13T01:00:08;12.00;99.90
2062;DHT22;11070;51.336;12.340;2023-05-13T01:05:39;11.90;99.90
2062;DHT22;11070;51.336;12.340;2023-05-13T01:08:18;11.80;99.90
2062;DHT22;11070;51.336;12.340;2023-05-13T01:10:56;11.80;99.90
2062;DHT22;11070;51.336;12.340;2023-05-13T01:13:25;11.80;99.90
2062;DHT22;11070;51.336;12.340;2023-05-13T01:16:15;11.70;99.90
2062;DHT22;11070;51.336;12.340;2023-05-13T01:18:46;11.70;99.90
2062;DHT22;11070;51.336;12.340;2023-05-13T01:21:13;11.80;99.90
2062;DHT22;11070;51.336;12.340;2023-05-13T01:23:38;11.80;99.90
2062;DHT22;11070;51.336;12.340;2023-05-13T01:26:04;11.70;99.90
2062;DHT22;11070;51.336;12.340;2023-05-13T01:28:30;11.70;99.90
2062;DHT22;11070;51.336;12.340;2023-05-13T01:30:56;11.50;99.90
2062;DHT22;11070;51.336;12.340;2023-05-13T01:33:22;11.50;99.90
2062;DHT22;11070;51.336;12.340;2023-05-13T01:35:49;11.50;99.90
2062;DHT22;11070;51.336;12.340;2023-05-13T01:38:16;11.50;99.90
2062;DHT22;11070;51.336;12.340;2023-05-13T01:40:42;11.50;99.90
2062;DHT22;11070;51.336;12.340;2023-05-13T01:43:09;11.60;99.90
2062;DHT22;11070;51.336;12.340;2023-05-13T01:45:34;11.50;99.90
2062;DHT22;11070;51.336;12.340;2023-05-13T01:48:01;11.50;99.90
2062;DHT22;11070;51.336;12.340;2023-05-13T01:50:26;11.50;99.90
2062;DHT22;11070;51.336;12.340;2023-05-13T01:52:52;11.50;99.90
2062;DHT22;11070;51.336;12.340;2023-05-13T01:55:18;11.60;99.90
2062;DHT22;11070;51.336;12.340;2023-05-13T01:57:43;11.70;99.90
2062;DHT22;11070;51.336;12.340;2023-05-13T02:00:10;11.70;99.90
2062;DHT22;11070;51.336;12.340;2023-05-13T02:02:35;11.70;99.90
2062;DHT22;11070;51.336;12.340;2023-05-13T02:05:01;11.70;99.90
2062;DHT22;11070;51.336;12.340;2023-05-13T02:07:27;11.70;99.90
2062;DHT22;11070;51.336;12.340;2023-05-13T02:09:52;11.70;99.90
2062;DHT22;11070;51.336;12.340;2023-05-13T02:12:24;11.70;99.90
2062;DHT22;11070;51.336;12.340;2023-05-13T02:14:51;11.70;99.90
2062;DHT22;11070;51.336;12.340;2023-05-13T02:17:16;11.60;99.90
2062;DHT22;11070;51.336;12.340;2023-05-13T02:19:42;11.60;99.90
2062;DHT22;11070;51.336;12.340;2023-05-13T02:22:08;11.60;99.90
2062;DHT22;11070;51.336;12.340;2023-05-13T02:24:33;11.60;99.90
2062;DHT22;11070;51.336;12.340;2023-05-13T02:27:00;11.50;99.90
2062;DHT22;11070;51.336;12.340;2023-05-13T02:29:26;11.50;99.90
2062;DHT22;11070;51.336;12.340;2023-05-13T02:31:52;11.50;99.90
2062;DHT22;11070;51.336;12.340;2023-05-13T02:34:18;11.40;99.90
2062;DHT22;11070;51.336;12.340;2023-05-13T02:36:43;11.40;99.90
2062;DHT22;11070;51.336;12.340;2023-05-13T02:39:09;11.40;99.90
2062;DHT22;11070;51.336;12.340;2023-05-13T02:41:35;11.40;99.90
2062;DHT22;11070;51.336;12.340;2023-05-13T02:44:01;11.30;99.90
2062;DHT22;11070;51.336;12.340;2023-05-13T02:46:27;11.30;99.90
2062;DHT22;11070;51.336;12.340;2023-05-13T02:48:52;11.20;99.90
2062;DHT22;11070;51.336;12.340;2023-05-13T02:51:18;11.20;99.90
2062;DHT22;11070;51.336;12.340;2023-05-13T02:53:44;11.10;99.90
2062;DHT22;11070;51.336;12.340;2023-05-13T02:56:09;11.10;99.90
2062;DHT22;11070;51.336;12.340;2023-05-13T02:58:35;11.00;99.90
2062;DHT22;11070;51.336;12.340;2023-05-13T03:01:01;11.00;99.90
2062;DHT22;11070;51.336;12.340;2023-05-13T03:03:27;10.90;99.90
2062;DHT22;11070;51.336;12.340;2023-05-13T03:05:53;10.80;99.90
2062;DHT22;11070;51.336;12.340;2023-05-13T03:08:18;10.80;99.90
2062;DHT22;11070;51.336;12.340;2023-05-13T03:10:44;10.80;99.90
2062;DHT22;11070;51.336;12.340;2023-05-13T03:13:10;10.70;99.90
2062;DHT22;11070;51.336;12.340;2023-05-13T03:15:35;10.70;99.90
2062;DHT22;11070;51.336;12.340;2023-05-13T03:18:01;10.70;99.90
2062;DHT22;11070;51.336;12.340;2023-05-13T03:20:27;10.70;99.90
2062;DHT22;11070;51.336;12.340;2023-05-13T03:22:52;10.60;99.90
2062;DHT22;11070;51.336;12.340;2023-05-13T03:25:18;10.50;99.90
2062;DHT22;11070;51.336;12.340;2023-05-13T03:27:44;10.50;99.90
2062;DHT22;11070;51.336;12.340;2023-05-13T03:30:10;10.40;99.90
2062;DHT22;11070;51.336;12.340;2023-05-13T03:32:35;10.40;99.90
2062;DHT22;11070;51.336;12.340;2023-05-13T03:35:01;10.40;99.90
2062;DHT22;11070;51.336;12.340;2023-05-13T03:37:27;10.40;99.90
2062;DHT22;11070;51.336;12.340;2023-05-13T03:39:53;10.40;99.90
2062;DHT22;11070;51.336;12.340;2023-05-13T03:42:18;10.30;99.90
2062;DHT22;11070;51.336;12.340;2023-05-13T03:44:45;10.30;99.90
2062;DHT22;11070;51.336;12.340;2023-05-13T03:47:10;10.30;99.90
2062;DHT22;11070;51.336;12.340;2023-05-13T03:49:36;10.30;99.90
2062;DHT22;11070;51.336;12.340;2023-05-13T03:52:02;10.30;99.90
2062;DHT22;11070;51.336;12.340;2023-05-13T03:54:27;10.30;99.90
2062;DHT22;11070;51.336;12.340;2023-05-13T03:56:53;10.30;99.90
2062;DHT22;11070;51.336;12.340;2023-05-13T03:59:19;10.40;99.90
2062;DHT22;11070;51.336;12.340;2023-05-13T04:01:44;10.30;99.90
2062;DHT22;11070;51.336;12.340;2023-05-13T04:04:10;10.40;99.90
2062;DHT22;11070;51.336;12.340;2023-05-13T04:06:36;10.40;99.90
2062;DHT22;11070;51.336;12.340;2023-05-13T04:09:02;10.50;99.90
2062;DHT22;11070;51.336;12.340;2023-05-13T04:11:29;10.50;99.90
2062;DHT22;11070;51.336;12.340;2023-05-13T04:13:56;10.50;99.90
2062;DHT22;11070;51.336;12.340;2023-05-13T04:16:22;10.40;99.90
2062;DHT22;11070;51.336;12.340;2023-05-13T04:18:47;10.50;99.90
2062;DHT22;11070;51.336;12.340;2023-05-13T04:21:13;10.40;99.90
2062;DHT22;11070;51.336;12.340;2023-05-13T04:23:39;10.50;99.90
2062;DHT22;11070;51.336;12.340;2023-05-13T04:26:05;10.60;99.90
2062;DHT22;11070;51.336;12.340;2023-05-13T04:28:30;10.60;99.90
2062;DHT22;11070;51.336;12.340;2023-05-13T04:30:56;10.60;99.90
2062;DHT22;11070;51.336;12.340;2023-05-13T04:33:21;10.70;99.90
2062;DHT22;11070;51.336;12.340;2023-05-13T04:35:47;10.70;99.90
2062;DHT22;11070;51.336;12.340;2023-05-13T04:38:13;10.90;99.90
2062;DHT22;11070;51.336;12.340;2023-05-13T04:40:39;11.00;99.90
2062;DHT22;11070;51.336;12.340;2023-05-13T04:43:04;11.10;99.90
2062;DHT22;11070;51.336;12.340;2023-05-13T04:45:30;11.20;99.90
2062;DHT22;11070;51.336;12.340;2023-05-13T04:47:56;11.30;99.90
2062;DHT22;11070;51.336;12.340;2023-05-13T04:50:22;11.40;99.90
2062;DHT22;11070;51.336;12.340;2023-05-13T04:52:48;11.60;99.90
2062;DHT22;11070;51.336;12.340;2023-05-13T04:55:14;11.80;99.90
2062;DHT22;11070;51.336;12.340;2023-05-13T04:57:39;11.80;99.90
2062;DHT22;11070;51.336;12.340;2023-05-13T05:00:06;11.90;99.90
2062;DHT22;11070;51.336;12.340;2023-05-13T05:02:33;11.90;99.90
2062;DHT22;11070;51.336;12.340;2023-05-13T05:04:59;12.00;99.90
2062;DHT22;11070;51.336;12.340;2023-05-13T05:07:25;12.10;99.90
2062;DHT22;11070;51.336;12.340;2023-05-13T05:09:50;12.10;99.90
2062;DHT22;11070;51.336;12.340;2023-05-13T05:12:17;12.10;99.90
2062;DHT22;11070;51.336;12.340;2023-05-13T05:14:43;12.40;99.90
2062;DHT22;11070;51.336;12.340;2023-05-13T05:17:08;12.50;99.90
2062;DHT22;11070;51.336;12.340;2023-05-13T05:19:34;12.60;99.90
2062;DHT22;11070;51.336;12.340;2023-05-13T05:22:00;12.70;99.90
2062;DHT22;11070;51.336;12.340;2023-05-13T05:24:25;12.80;99.90
2062;DHT22;11070;51.336;12.340;2023-05-13T05:26:51;12.70;99.90
2062;DHT22;11070;51.336;12.340;2023-05-13T05:29:16;12.80;99.90
2062;DHT22;11070;51.336;12.340;2023-05-13T05:31:42;12.90;99.90
2062;DHT22;11070;51.336;12.340;2023-05-13T05:34:08;13.20;99.90
2062;DHT22;11070;51.336;12.340;2023-05-13T05:36:34;13.40;99.90
2062;DHT22;11070;51.336;12.340;2023-05-13T05:39:00;13.60;99.90
2062;DHT22;11070;51.336;12.340;2023-05-13T05:41:25;13.80;99.90
2062;DHT22;11070;51.336;12.340;2023-05-13T05:43:51;13.90;99.90
2062;DHT22;11070;51.336;12.340;2023-05-13T05:46:16;14.00;99.90
2062;DHT22;11070;51.336;12.340;2023-05-13T05:48:42;14.10;99.90
2062;DHT22;11070;51.336;12.340;2023-05-13T05:51:08;14.10;99.90
2062;DHT22;11070;51.336;12.340;2023-05-13T05:53:34;14.30;99.90
2062;DHT22;11070;51.336;12.340;2023-05-13T05:56:02;14.40;99.90
2062;DHT22;11070;51.336;12.340;2023-05-13T05:58:28;14.50;99.90
2062;DHT22;11070;51.336;12.340;2023-05-13T06:00:54;14.70;99.90
2062;DHT22;11070;51.336;12.340;2023-05-13T06:03:21;14.80;99.90
2062;DHT22;11070;51.336;12.340;2023-05-13T06:05:47;14.80;99.90
2062;DHT22;11070;51.336;12.340;2023-05-13T06:08:12;15.00;99.90
2062;DHT22;11070;51.336;12.340;2023-05-13T06:10:38;15.20;99.90
2062;DHT22;11070;51.336;12.340;2023-05-13T06:13:04;15.30;99.90
2062;DHT22;11070;51.336;12.340;2023-05-13T06:15:30;15.50;99.90
2062;DHT22;11070;51.336;12.340;2023-05-13T06:17:56;15.60;99.90
2062;DHT22;11070;51.336;12.340;2023-05-13T06:20:22;15.80;99.90
2062;DHT22;11070;51.336;12.340;2023-05-13T06:22:47;16.00;50.30
2062;DHT22;11070;51.336;12.340;2023-05-13T06:25:13;16.20;33.50
2062;DHT22;11070;51.336;12.340;2023-05-13T06:27:39;16.40;1.00
2062;DHT22;11070;51.336;12.340;2023-05-13T06:30:05;16.60;1.00
2062;DHT22;11070;51.336;12.340;2023-05-13T06:32:31;16.80;1.00
2062;DHT22;11070;51.336;12.340;2023-05-13T06:34:57;17.00;1.00
2062;DHT22;11070;51.336;12.340;2023-05-13T06:37:22;17.10;1.00
2062;DHT22;11070;51.336;12.340;2023-05-13T06:39:48;17.30;1.00
2062;DHT22;11070;51.336;12.340;2023-05-13T06:42:14;17.50;1.00
2062;DHT22;11070;51.336;12.340;2023-05-13T06:44:39;17.80;1.00
2062;DHT22;11070;51.336;12.340;2023-05-13T06:47:05;18.00;1.00
2062;DHT22;11070;51.336;12.340;2023-05-13T06:49:34;18.30;1.00
2062;DHT22;11070;51.336;12.340;2023-05-13T06:52:00;18.40;1.00
2062;DHT22;11070;51.336;12.340;2023-05-13T06:54:25;18.60;1.00
2062;DHT22;11070;51.336;12.340;2023-05-13T06:56:52;18.80;99.90
2062;DHT22;11070;51.336;12.340;2023-05-13T06:59:18;18.90;99.90
2062;DHT22;11070;51.336;12.340;2023-05-13T07:01:45;19.10;99.90
2062;DHT22;11070;51.336;12.340;2023-05-13T07:04:11;19.30;99.90
2062;DHT22;11070;51.336;12.340;2023-05-13T07:06:37;19.30;99.90
2062;DHT22;11070;51.336;12.340;2023-05-13T07:09:03;19.30;99.90
2062;DHT22;11070;51.336;12.340;2023-05-13T07:11:28;19.40;99.90
2062;DHT22;11070;51.336;12.340;2023-05-13T07:13:54;19.60;99.90
2062;DHT22;11070;51.336;12.340;2023-05-13T07:16:20;19.80;99.90
2062;DHT22;11070;51.336;12.340;2023-05-13T07:18:46;20.00;99.90
2062;DHT22;11070;51.336;12.340;2023-05-13T07:21:13;20.30;99.90
2062;DHT22;11070;51.336;12.340;2023-05-13T07:23:39;20.30;99.90
2062;DHT22;11070;51.336;12.340;2023-05-13T07:26:05;20.20;99.90
2062;DHT22;11070;51.336;12.340;2023-05-13T07:28:31;20.20;99.90
2062;DHT22;11070;51.336;12.340;2023-05-13T07:30:57;20.20;99.90
2062;DHT22;11070;51.336;12.340;2023-05-13T07:33:23;20.30;99.90
2062;DHT22;11070;51.336;12.340;2023-05-13T07:35:48;20.40;99.90
2062;DHT22;11070;51.336;12.340;2023-05-13T07:38:14;20.60;99.90
2062;DHT22;11070;51.336;12.340;2023-05-13T07:40:40;20.70;99.90
2062;DHT22;11070;51.336;12.340;2023-05-13T07:43:05;20.80;99.90
2062;DHT22;11070;51.336;12.340;2023-05-13T07:45:31;20.80;99.90
2062;DHT22;11070;51.336;12.340;2023-05-13T07:47:57;21.00;99.90
2062;DHT22;11070;51.336;12.340;2023-05-13T07:50:23;20.70;99.90
2062;DHT22;11070;51.336;12.340;2023-05-13T07:52:48;20.90;99.90
2062;DHT22;11070;51.336;12.340;2023-05-13T07:55:16;21.20;99.90
2062;DHT22;11070;51.336;12.340;2023-05-13T07:57:42;21.30;99.90
2062;DHT22;11070;51.336;12.340;2023-05-13T08:00:08;21.30;99.90
2062;DHT22;11070;51.336;12.340;2023-05-13T08:02:37;21.30;99.90
2062;DHT22;11070;51.336;12.340;2023-05-13T08:05:03;20.80;99.90
2062;DHT22;11070;51.336;12.340;2023-05-13T08:07:29;21.20;99.90
2062;DHT22;11070;51.336;12.340;2023-05-13T08:09:55;21.50;99.90
2062;DHT22;11070;51.336;12.340;2023-05-13T08:12:20;21.80;99.90
2062;DHT22;11070;51.336;12.340;2023-05-13T08:14:46;21.90;99.90
2062;DHT22;11070;51.336;12.340;2023-05-13T08:17:12;22.20;99.90
2062;DHT22;11070;51.336;12.340;2023-05-13T08:19:38;22.20;99.90
2062;DHT22;11070;51.336;12.340;2023-05-13T08:22:04;22.10;99.90
2062;DHT22;11070;51.336;12.340;2023-05-13T08:24:30;21.90;99.90
2062;DHT22;11070;51.336;12.340;2023-05-13T08:26:56;21.50;99.90
2062;DHT22;11070;51.336;12.340;2023-05-13T08:29:21;20.90;99.90
2062;DHT22;11070;51.336;12.340;2023-05-13T08:31:47;21.10;99.90
2062;DHT22;11070;51.336;12.340;2023-05-13T08:34:13;21.50;99.90
2062;DHT22;11070;51.336;12.340;2023-05-13T08:36:39;22.00;99.90
2062;DHT22;11070;51.336;12.340;2023-05-13T08:39:05;22.40;99.90
2062;DHT22;11070;51.336;12.340;2023-05-13T08:41:33;22.90;99.90
2062;DHT22;11070;51.336;12.340;2023-05-13T08:43:59;23.30;99.90
2062;DHT22;11070;51.336;12.340;2023-05-13T08:46:31;23.40;99.90
2062;DHT22;11070;51.336;12.340;2023-05-13T08:48:58;23.60;99.90
2062;DHT22;11070;51.336;12.340;2023-05-13T08:51:24;23.80;99.90
2062;DHT22;11070;51.336;12.340;2023-05-13T08:53:51;23.80;99.90
2062;DHT22;11070;51.336;12.340;2023-05-13T08:56:17;23.20;99.90
2062;DHT22;11070;51.336;12.340;2023-05-13T08:58:43;22.60;99.90
2062;DHT22;11070;51.336;12.340;2023-05-13T09:01:09;22.50;99.90
2062;DHT22;11070;51.336;12.340;2023-05-13T09:03:41;22.20;99.90
2062;DHT22;11070;51.336;12.340;2023-05-13T09:06:10;22.20;99.90
2062;DHT22;11070;51.336;12.340;2023-05-13T09:08:36;22.80;99.90
2062;DHT22;11070;51.336;12.340;2023-05-13T09:11:02;22.80;99.90
2062;DHT22;11070;51.336;12.340;2023-05-13T09:13:28;22.50;99.90
2062;DHT22;11070;51.336;12.340;2023-05-13T09:15:53;21.90;99.90
2062;DHT22;11070;51.336;12.340;2023-05-13T09:18:19;22.20;99.90
2062;DHT22;11070;51.336;12.340;2023-05-13T09:20:45;22.50;99.90
2062;DHT22;11070;51.336;12.340;2023-05-13T09:23:12;22.70;99.90
2062;DHT22;11070;51.336;12.340;2023-05-13T09:25:38;23.10;99.90
2062;DHT22;11070;51.336;12.340;2023-05-13T09:28:05;23.40;99.90
2062;DHT22;11070;51.336;12.340;2023-05-13T09:30:32;23.90;99.90
2062;DHT22;11070;51.336;12.340;2023-05-13T09:33:12;24.30;99.90
2062;DHT22;11070;51.336;12.340;2023-05-13T09:35:48;24.70;99.90
2062;DHT22;11070;51.336;12.340;2023-05-13T09:38:17;25.20;99.90
2062;DHT22;11070;51.336;12.340;2023-05-13T09:40:54;25.50;99.90
2062;DHT22;11070;51.336;12.340;2023-05-13T09:43:22;25.40;99.90
2062;DHT22;11070;51.336;12.340;2023-05-13T09:45:52;25.30;99.90
2062;DHT22;11070;51.336;12.340;2023-05-13T09:48:20;25.10;99.90
2062;DHT22;11070;51.336;12.340;2023-05-13T09:50:48;25.30;99.90
2062;DHT22;11070;51.336;12.340;2023-05-13T09:53:15;24.80;99.90
2062;DHT22;11070;51.336;12.340;2023-05-13T09:55:49;24.80;99.90
2062;DHT22;11070;51.336;12.340;2023-05-13T09:58:14;25.20;99.90
2062;DHT22;11070;51.336;12.340;2023-05-13T10:00:41;25.50;99.90
2062;DHT22;11070;51.336;12.340;2023-05-13T10:03:08;25.50;99.90
2062;DHT22;11070;51.336;12.340;2023-05-13T10:05:34;25.40;99.90
2062;DHT22;11070;51.336;12.340;2023-05-13T10:08:00;25.50;99.90
2062;DHT22;11070;51.336;12.340;2023-05-13T10:10:30;25.80;99.90
2062;DHT22;11070;51.336;12.340;2023-05-13T10:12:58;25.80;99.90
2062;DHT22;11070;51.336;12.340;2023-05-13T10:15:24;26.10;99.90
2062;DHT22;11070;51.336;12.340;2023-05-13T10:17:51;26.30;99.90
2062;DHT22;11070;51.336;12.340;2023-05-13T10:20:17;26.70;99.90
2062;DHT22;11070;51.336;12.340;2023-05-13T10:22:43;26.60;99.90
2062;DHT22;11070;51.336;12.340;2023-05-13T10:25:09;27.00;99.90
2062;DHT22;11070;51.336;12.340;2023-05-13T10:27:37;27.20;99.90
2062;DHT22;11070;51.336;12.340;2023-05-13T10:30:04;27.50;99.90
2062;DHT22;11070;51.336;12.340;2023-05-13T10:32:36;27.40;99.90
2062;DHT22;11070;51.336;12.340;2023-05-13T10:35:12;26.30;99.90
2062;DHT22;11070;51.336;12.340;2023-05-13T10:43:12;25.50;99.90
2062;DHT22;11070;51.336;12.340;2023-05-13T10:45:50;25.30;99.90
2062;DHT22;11070;51.336;12.340;2023-05-13T10:48:17;24.70;99.90
2062;DHT22;11070;51.336;12.340;2023-05-13T10:53:24;25.90;99.90
2062;DHT22;11070;51.336;12.340;2023-05-13T10:55:57;26.20;99.90
2062;DHT22;11070;51.336;12.340;2023-05-13T10:58:30;25.60;99.90
2062;DHT22;11070;51.336;12.340;2023-05-13T11:03:40;24.90;99.90
2062;DHT22;11070;51.336;12.340;2023-05-13T11:06:13;24.60;99.90
2062;DHT22;11070;51.336;12.340;2023-05-13T11:08:42;24.10;99.90
2062;DHT22;11070;51.336;12.340;2023-05-13T11:13:43;24.30;99.90
2062;DHT22;11070;51.336;12.340;2023-05-13T11:16:12;24.70;99.90
2062;DHT22;11070;51.336;12.340;2023-05-13T11:18:38;24.60;99.90
2062;DHT22;11070;51.336;12.340;2023-05-13T11:21:05;24.30;99.90
2062;DHT22;11070;51.336;12.340;2023-05-13T11:23:33;23.80;99.90
2062;DHT22;11070;51.336;12.340;2023-05-13T11:26:11;23.90;99.90
2062;DHT22;11070;51.336;12.340;2023-05-13T11:28:57;24.40;99.90
2062;DHT22;11070;51.336;12.340;2023-05-13T11:31:24;25.00;99.90
2062;DHT22;11070;51.336;12.340;2023-05-13T11:34:13;24.60;99.90
2062;DHT22;11070;51.336;12.340;2023-05-13T11:36:42;24.50;99.90
2062;DHT22;11070;51.336;12.340;2023-05-13T11:39:26;25.00;99.90
2062;DHT22;11070;51.336;12.340;2023-05-13T11:41:52;25.40;99.90
2062;DHT22;11070;51.336;12.340;2023-05-13T11:44:21;25.90;99.90
2062;DHT22;11070;51.336;12.340;2023-05-13T11:46:58;26.60;99.90
2062;DHT22;11070;51.336;12.340;2023-05-13T11:52:12;27.40;99.90
2062;DHT22;11070;51.336;12.340;2023-05-13T11:54:52;27.30;99.90
2062;DHT22;11070;51.336;12.340;2023-05-13T11:57:25;27.30;99.90
2062;DHT22;11070;51.336;12.340;2023-05-13T12:00:00;26.90;99.90
2062;DHT22;11070;51.336;12.340;2023-05-13T12:02:31;26.80;99.90
2062;DHT22;11070;51.336;12.340;2023-05-13T12:05:03;27.00;99.90
2062;DHT22;11070;51.336;12.340;2023-05-13T12:07:30;26.70;99.90
2062;DHT22;11070;51.336;12.340;2023-05-13T12:09:57;26.30;99.90
2062;DHT22;11070;51.336;12.340;2023-05-13T12:12:23;25.40;99.90
2062;DHT22;11070;51.336;12.340;2023-05-13T12:14:50;24.90;99.90
2062;DHT22;11070;51.336;12.340;2023-05-13T12:17:17;24.90;99.90
2062;DHT22;11070;51.336;12.340;2023-05-13T12:20:09;25.10;99.90
2062;DHT22;11070;51.336;12.340;2023-05-13T12:22:37;24.80;99.90
2062;DHT22;11070;51.336;12.340;2023-05-13T12:25:42;25.00;99.90
2062;DHT22;11070;51.336;12.340;2023-05-13T12:28:20;25.80;99.90
2062;DHT22;11070;51.336;12.340;2023-05-13T12:31:01;25.70;99.90
2062;DHT22;11070;51.336;12.340;2023-05-13T12:33:33;25.20;99.90
2062;DHT22;11070;51.336;12.340;2023-05-13T12:38:39;25.10;99.90
2062;DHT22;11070;51.336;12.340;2023-05-13T12:41:11;25.40;99.90
2062;DHT22;11070;51.336;12.340;2023-05-13T12:43:40;25.60;99.90
2062;DHT22;11070;51.336;12.340;2023-05-13T12:46:06;25.00;99.90
2062;DHT22;11070;51.336;12.340;2023-05-13T12:48:32;24.80;99.90
2062;DHT22;11070;51.336;12.340;2023-05-13T12:50:57;24.40;99.90
2062;DHT22;11070;51.336;12.340;2023-05-13T12:53:23;23.90;99.90
2062;DHT22;11070;51.336;12.340;2023-05-13T12:55:49;24.30;99.90
2062;DHT22;11070;51.336;12.340;2023-05-13T12:58:15;25.50;99.90
2062;DHT22;11070;51.336;12.340;2023-05-13T13:00:41;25.80;99.90
2062;DHT22;11070;51.336;12.340;2023-05-13T13:03:06;25.90;99.90
2062;DHT22;11070;51.336;12.340;2023-05-13T13:05:32;25.50;99.90
2062;DHT22;11070;51.336;12.340;2023-05-13T13:07:58;24.70;99.90
2062;DHT22;11070;51.336;12.340;2023-05-13T13:10:27;24.10;99.90
2062;DHT22;11070;51.336;12.340;2023-05-13T13:12:52;23.40;99.90
2062;DHT22;11070;51.336;12.340;2023-05-13T13:15:18;23.00;99.90
2062;DHT22;11070;51.336;12.340;2023-05-13T13:17:44;22.70;99.90
2062;DHT22;11070;51.336;12.340;2023-05-13T13:20:10;22.50;99.90
2062;DHT22;11070;51.336;12.340;2023-05-13T13:22:36;22.40;99.90
2062;DHT22;11070;51.336;12.340;2023-05-13T13:25:06;22.40;99.90
2062;DHT22;11070;51.336;12.340;2023-05-13T13:27:32;22.20;99.90
2062;DHT22;11070;51.336;12.340;2023-05-13T13:29:59;21.80;99.90
2062;DHT22;11070;51.336;12.340;2023-05-13T13:32:25;21.50;99.90
2062;DHT22;11070;51.336;12.340;2023-05-13T13:34:50;21.30;99.90
2062;DHT22;11070;51.336;12.340;2023-05-13T13:37:16;21.50;99.90
2062;DHT22;11070;51.336;12.340;2023-05-13T13:39:42;21.80;99.90
2062;DHT22;11070;51.336;12.340;2023-05-13T13:42:07;22.10;99.90
2062;DHT22;11070;51.336;12.340;2023-05-13T13:44:33;22.30;99.90
2062;DHT22;11070;51.336;12.340;2023-05-13T13:47:01;22.40;99.90
2062;DHT22;11070;51.336;12.340;2023-05-13T13:49:26;22.50;99.90
2062;DHT22;11070;51.336;12.340;2023-05-13T13:51:52;22.40;99.90
2062;DHT22;11070;51.336;12.340;2023-05-13T13:54:18;22.40;99.90
2062;DHT22;11070;51.336;12.340;2023-05-13T13:56:44;22.80;99.90
2062;DHT22;11070;51.336;12.340;2023-05-13T13:59:10;22.40;99.90
2062;DHT22;11070;51.336;12.340;2023-05-13T14:01:35;21.80;99.90
2062;DHT22;11070;51.336;12.340;2023-05-13T14:04:12;21.60;99.90
2062;DHT22;11070;51.336;12.340;2023-05-13T14:06:38;21.50;99.90
2062;DHT22;11070;51.336;12.340;2023-05-13T14:09:04;21.30;99.90
2062;DHT22;11070;51.336;12.340;2023-05-13T14:11:30;21.30;99.90
2062;DHT22;11070;51.336;12.340;2023-05-13T14:13:56;21.50;99.90
2062;DHT22;11070;51.336;12.340;2023-05-13T14:16:23;21.50;99.90
2062;DHT22;11070;51.336;12.340;2023-05-13T14:18:51;21.50;99.90
2062;DHT22;11070;51.336;12.340;2023-05-13T14:21:16;21.30;99.90
2062;DHT22;11070;51.336;12.340;2023-05-13T14:23:42;21.00;99.90
2062;DHT22;11070;51.336;12.340;2023-05-13T14:26:08;21.00;99.90
2062;DHT22;11070;51.336;12.340;2023-05-13T14:28:35;21.10;99.90
2062;DHT22;11070;51.336;12.340;2023-05-13T14:31:01;21.20;99.90
2062;DHT22;11070;51.336;12.340;2023-05-13T14:33:26;21.30;99.90
2062;DHT22;11070;51.336;12.340;2023-05-13T14:35:52;21.20;99.90
2062;DHT22;11070;51.336;12.340;2023-05-13T14:38:18;21.10;99.90
2062;DHT22;11070;51.336;12.340;2023-05-13T14:40:44;21.10;99.90
2062;DHT22;11070;51.336;12.340;2023-05-13T14:43:09;20.70;99.90
2062;DHT22;11070;51.336;12.340;2023-05-13T14:45:35;20.50;99.90
2062;DHT22;11070;51.336;12.340;2023-05-13T14:48:01;20.40;99.90
2062;DHT22;11070;51.336;12.340;2023-05-13T14:50:27;20.40;99.90
2062;DHT22;11070;51.336;12.340;2023-05-13T14:52:52;20.50;99.90
2062;DHT22;11070;51.336;12.340;2023-05-13T14:55:18;20.90;99.90
2062;DHT22;11070;51.336;12.340;2023-05-13T14:57:44;20.80;99.90
2062;DHT22;11070;51.336;12.340;2023-05-13T15:00:10;20.50;99.90
2062;DHT22;11070;51.336;12.340;2023-05-13T15:02:36;20.40;99.90
2062;DHT22;11070;51.336;12.340;2023-05-13T15:05:02;20.40;99.90
2062;DHT22;11070;51.336;12.340;2023-05-13T15:07:28;20.40;99.90
2062;DHT22;11070;51.336;12.340;2023-05-13T15:09:54;20.40;99.90
2062;DHT22;11070;51.336;12.340;2023-05-13T15:12:19;20.40;99.90
2062;DHT22;11070;51.336;12.340;2023-05-13T15:14:57;20.50;99.90
2062;DHT22;11070;51.336;12.340;2023-05-13T15:17:22;20.70;99.90
2062;DHT22;11070;51.336;12.340;2023-05-13T15:19:48;20.70;99.90
2062;DHT22;11070;51.336;12.340;2023-05-13T15:22:14;20.60;99.90
2062;DHT22;11070;51.336;12.340;2023-05-13T15:24:41;20.70;99.90
2062;DHT22;11070;51.336;12.340;2023-05-13T15:27:07;20.40;99.90
2062;DHT22;11070;51.336;12.340;2023-05-13T15:29:32;20.50;99.90
2062;DHT22;11070;51.336;12.340;2023-05-13T15:31:58;20.50;99.90
2062;DHT22;11070;51.336;12.340;2023-05-13T15:34:24;20.60;99.90
2062;DHT22;11070;51.336;12.340;2023-05-13T15:36:49;20.40;99.90
2062;DHT22;11070;51.336;12.340;2023-05-13T15:39:15;20.40;99.90
2062;DHT22;11070;51.336;12.340;2023-05-13T15:41:41;20.50;99.90
2062;DHT22;11070;51.336;12.340;2023-05-13T15:44:07;20.40;99.90
2062;DHT22;11070;51.336;12.340;2023-05-13T15:46:33;20.30;99.90
2062;DHT22;11070;51.336;12.340;2023-05-13T15:48:59;20.20;99.90
2062;DHT22;11070;51.336;12.340;2023-05-13T15:51:26;20.30;99.90
2062;DHT22;11070;51.336;12.340;2023-05-13T15:53:51;20.50;99.90